Time;durP1;ratioP1;P1;durP2;ratioP2;P2;SDS_P1;SDS_P2;PMS_P1;PMS_P2;Temp;Humidity;BMP_temperature;BMP_pressure;BME280_temperature;BME280_humidity;BME280_pressure;Samples;Min_cycle;Max_cycle;Signal;HPM_P1;HPM_P2
2022/12/13 00:01:23;;;;;;;;;43.50;39.25;;;;;-0.33;64.52;100420.41;4997893;28;45520;-75
2022/12/13 00:03:51;;;;;;;;;41.00;33.25;;;;;-0.45;63.65;100402.78;4980516;28;45631;-76
2022/12/13 00:06:16;;;;;;;;;35.50;26.50;;;;;-0.36;63.87;100404.81;4993952;28;45393;-76
2022/12/13 00:08:41;;;;;;;;;34.50;30.00;;;;;-0.48;64.23;100389.75;5001609;28;45557;-76
2022/12/13 00:11:10;;;;;;;;;40.50;35.50;;;;;-0.48;64.21;100392.34;4979942;28;46154;-75
2022/12/13 00:13:36;;;;;;;;;41.00;35.25;;;;;-0.41;63.85;100402.03;4975588;28;45419;-75
2022/12/13 00:16:05;;;;;;;;;44.75;33.00;;;;;-0.37;64.32;100403.06;5000896;28;45590;-76
2022/12/13 00:18:31;;;;;;;;;33.75;30.50;;;;;-0.50;63.76;100391.41;4984334;28;45590;-76
2022/12/13 00:20:56;;;;;;;;;39.50;32.75;;;;;-0.43;64.13;100398.53;5010604;28;45357;-76
2022/12/13 00:23:23;;;;;;;;;29.75;25.00;;;;;-0.43;63.40;100400.22;5001222;28;45282;-76
2022/12/13 00:25:48;;;;;;;;;39.50;33.25;;;;;-0.53;63.51;100384.41;4999596;28;45770;-76
2022/12/13 00:28:14;;;;;;;;;33.25;29.50;;;;;-0.49;63.66;100388.84;4983574;28;45473;-76
2022/12/13 00:30:40;;;;;;;;;35.25;31.25;;;;;-0.41;63.73;100396.88;4989716;28;46118;-75
2022/12/13 00:33:06;;;;;;;;;36.25;24.25;;;;;-0.49;63.78;100386.25;4998140;28;45880;-75
2022/12/13 00:35:32;;;;;;;;;31.50;28.25;;;;;-0.54;63.66;100377.47;4995600;28;45425;-75
2022/12/13 00:37:58;;;;;;;;;35.50;32.00;;;;;-0.53;63.77;100378.38;4998565;28;45324;-75
2022/12/13 00:40:23;;;;;;;;;37.25;30.75;;;;;-0.53;63.22;100371.50;4998655;28;46355;-75
2022/12/13 00:42:49;;;;;;;;;25.50;24.25;;;;;-0.56;63.57;100373.97;4989022;28;45397;-75
2022/12/13 00:45:15;;;;;;;;;34.25;33.25;;;;;-0.47;63.31;100388.91;5008495;28;45216;-75
2022/12/13 00:47:40;;;;;;;;;41.25;32.50;;;;;-0.45;63.39;100393.31;4992100;28;45250;-75
2022/12/13 00:50:06;;;;;;;;;27.00;23.25;;;;;-0.53;63.62;100371.50;4982364;28;46020;-75
2022/12/13 00:52:34;;;;;;;;;32.25;28.75;;;;;-0.56;63.43;100371.38;4995945;28;45575;-75
2022/12/13 00:55:00;;;;;;;;;32.75;26.25;;;;;-0.47;63.63;100391.50;4989034;28;45358;-74
2022/12/13 00:57:26;;;;;;;;;31.00;27.00;;;;;-0.61;63.46;100367.75;4989153;28;45433;-75
2022/12/13 00:59:52;;;;;;;;;29.00;27.75;;;;;-0.56;63.61;100380.81;4978036;28;47084;-75
2022/12/13 01:02:17;;;;;;;;;29.75;28.00;;;;;-0.61;63.45;100378.09;4980234;28;45448;-75
2022/12/13 01:04:42;;;;;;;;;41.00;34.50;;;;;-0.63;63.41;100369.41;4978912;28;45461;-75
2022/12/13 01:07:08;;;;;;;;;32.75;26.50;;;;;-0.61;63.55;100378.09;4980222;28;45461;-74
2022/12/13 01:09:33;;;;;;;;;28.00;24.00;;;;;-0.51;63.21;100387.03;4979801;28;45714;-75
2022/12/13 01:12:02;;;;;;;;;28.50;27.25;;;;;-0.55;63.24;100380.88;4992368;28;45506;-75
2022/12/13 01:14:28;;;;;;;;;26.25;22.75;;;;;-0.65;63.49;100368.47;5001803;28;45435;-75
2022/12/13 01:16:56;;;;;;;;;32.00;27.75;;;;;-0.63;63.59;100381.44;5001739;28;45362;-75
2022/12/13 01:19:23;;;;;;;;;34.00;28.50;;;;;-0.59;63.32;100389.34;4965114;28;47712;-75
2022/12/13 01:21:48;;;;;;;;;28.00;25.50;;;;;-0.63;63.73;100381.44;4993403;28;45520;-75
2022/12/13 01:24:14;;;;;;;;;18.50;17.75;;;;;-0.68;63.20;100374.41;4982794;28;45427;-75
2022/12/13 01:26:40;;;;;;;;;36.25;29.75;;;;;-0.67;63.28;100381.34;4982225;28;45510;-75
2022/12/13 01:29:07;;;;;;;;;29.25;24.00;;;;;-0.76;62.80;100362.91;4982145;28;46219;-75
2022/12/13 01:31:33;;;;;;;;;27.75;25.50;;;;;-0.75;62.80;100375.03;4990987;28;45439;-75
2022/12/13 01:33:59;;;;;;;;;28.00;25.00;;;;;-0.82;62.84;100356.66;5002123;28;45378;-75
2022/12/13 01:36:24;;;;;;;;;26.00;23.25;;;;;-0.78;63.01;100356.81;5001642;28;45438;-75
2022/12/13 01:38:50;;;;;;;;;24.50;22.50;;;;;-0.69;63.45;100376.94;4999946;28;47893;-75
2022/12/13 01:41:18;;;;;;;;;31.50;27.00;;;;;-0.78;63.21;100364.56;5001539;28;45510;-75
2022/12/13 01:43:46;;;;;;;;;27.25;22.50;;;;;-0.71;63.32;100379.47;4984289;28;45204;-74
2022/12/13 01:46:14;;;;;;;;;30.50;24.75;;;;;-0.74;63.49;100373.31;5010073;28;45166;-75
2022/12/13 01:49:00;;;;;;;;;27.00;27.00;;;;;-0.84;63.33;100353.13;4981723;28;46657;-75
2022/12/13 01:51:32;;;;;;;;;34.75;28.75;;;;;-0.82;63.26;100356.66;4989660;28;45482;-75
2022/12/13 01:54:02;;;;;;;;;25.25;21.50;;;;;-0.84;63.05;100355.72;4999277;28;45308;-75
2022/12/13 01:56:37;;;;;;;;;33.75;29.00;;;;;-0.80;63.53;100366.22;4984951;28;45482;-75
2022/12/13 01:59:05;;;;;;;;;34.00;28.00;;;;;-0.73;63.10;100378.53;4981587;28;45723;-75
2022/12/13 02:01:31;;;;;;;;;29.25;23.50;;;;;-0.74;62.37;100381.94;4981623;28;45296;-74
2022/12/13 02:03:57;;;;;;;;;31.00;28.00;;;;;-0.74;62.99;100376.78;4981766;28;45428;-75
2022/12/13 02:06:30;;;;;;;;;27.75;22.50;;;;;-0.76;62.93;100377.53;4964112;28;45340;-74
2022/12/13 02:08:56;;;;;;;;;28.75;20.25;;;;;-0.85;62.92;100364.31;4979914;28;48503;-75
2022/12/13 02:11:21;;;;;;;;;28.00;24.00;;;;;-0.78;63.13;100372.31;4979872;28;45342;-75
2022/12/13 02:13:47;;;;;;;;;24.50;21.25;;;;;-0.78;62.99;100368.84;4981633;28;45478;-75
2022/12/13 02:16:52;;;;;;;;;26.00;19.75;;;;;-0.68;62.89;100383.88;4981465;28;45488;-74
2022/12/13 02:19:36;;;;;;;;;24.50;21.00;;;;;-0.67;63.26;100389.09;4987846;28;45247;-75
2022/12/13 02:22:01;;;;;;;;;20.25;18.25;;;;;-0.67;62.32;100390.78;4986910;28;45238;-74
2022/12/13 02:25:06;;;;;;;;;17.00;16.00;;;;;-0.72;62.99;100382.00;4981253;28;45498;-75
2022/12/13 02:28:05;;;;;;;;;22.00;17.75;;;;;-0.72;62.02;100377.72;4980190;28;45175;-75
2022/12/13 02:30:52;;;;;;;;;21.50;20.00;;;;;-0.80;62.53;100368.81;4980991;28;45488;-75
2022/12/13 02:33:43;;;;;;;;;28.25;22.75;;;;;-0.76;62.21;100367.22;4981062;28;45423;-75
2022/12/13 02:36:17;;;;;;;;;24.25;21.25;;;;;-0.71;62.09;100370.84;4981343;28;45506;-75
2022/12/13 02:39:05;;;;;;;;;28.75;22.00;;;;;-0.69;62.50;100371.78;4980843;28;45179;-74
2022/12/13 02:41:40;;;;;;;;;24.75;21.50;;;;;-0.72;62.13;100376.84;4980842;28;46870;-75
2022/12/13 02:44:13;;;;;;;;;23.75;16.50;;;;;-0.69;61.89;100379.53;4990428;28;45706;-75
2022/12/13 02:46:47;;;;;;;;;34.00;26.25;;;;;-0.83;61.62;100353.16;5003136;28;45539;-74
2022/12/13 02:49:15;;;;;;;;;26.00;24.25;;;;;-0.76;62.27;100373.25;4981014;28;45457;-75
2022/12/13 02:51:42;;;;;;;;;28.75;23.50;;;;;-0.75;62.26;100369.84;4972173;28;46639;-75
2022/12/13 02:54:08;;;;;;;;;32.50;25.00;;;;;-0.78;61.92;100361.97;4971601;28;45361;-74
2022/12/13 02:56:33;;;;;;;;;26.25;21.00;;;;;-0.67;61.53;100383.03;4979906;28;45335;-74
2022/12/13 02:59:06;;;;;;;;;27.25;25.00;;;;;-0.69;61.92;100372.66;4972036;28;45661;-75
2022/12/13 03:02:10;;;;;;;;;28.75;27.50;;;;;-0.64;61.77;100378.00;4997425;28;48276;-74
2022/12/13 03:08:17;;;;;;;;;26.25;19.25;;;;;-0.63;62.14;100361.66;4979877;28;45489;-74
2022/12/13 03:10:55;;;;;;;;;26.25;22.25;;;;;-0.79;62.20;100343.84;4980929;28;45270;-75
2022/12/13 03:13:44;;;;;;;;;29.00;20.75;;;;;-0.63;61.74;100359.06;5000403;28;45528;-75
2022/12/13 03:16:35;;;;;;;;;28.50;22.75;;;;;-0.70;62.21;100346.75;4968601;28;45310;-75
2022/12/13 03:19:03;;;;;;;;;23.25;19.25;;;;;-0.73;62.05;100337.16;4981287;28;45451;-74
2022/12/13 03:21:39;;;;;;;;;26.75;19.00;;;;;-0.68;62.15;100350.25;4991006;28;45600;-75
2022/12/13 03:24:05;;;;;;;;;26.25;20.50;;;;;-0.77;61.79;100331.88;4979992;28;45421;-75
2022/12/13 03:26:30;;;;;;;;;28.00;23.25;;;;;-0.77;61.80;100329.28;4979016;28;46157;-74
2022/12/13 03:28:56;;;;;;;;;29.75;19.75;;;;;-0.83;62.08;100335.09;4980481;28;45310;-75
2022/12/13 03:31:21;;;;;;;;;29.75;25.75;;;;;-0.86;62.07;100328.94;4979021;28;45633;-75
2022/12/13 03:33:47;;;;;;;;;22.25;20.50;;;;;-0.86;62.04;100334.97;4980143;28;45279;-74
2022/12/13 03:36:14;;;;;;;;;26.75;22.50;;;;;-0.82;61.64;100342.03;4980475;28;45215;-74
2022/12/13 03:38:40;;;;;;;;;22.50;21.00;;;;;-0.91;61.88;100331.34;4983087;28;45456;-74
2022/12/13 03:41:12;;;;;;;;;24.50;20.00;;;;;-1.00;61.39;100315.53;4986946;28;45330;-74
2022/12/13 03:43:39;;;;;;;;;25.25;21.25;;;;;-0.95;62.16;100325.19;4990056;28;45490;-75
2022/12/13 03:46:05;;;;;;;;;24.00;22.75;;;;;-0.99;62.28;100315.59;5015505;28;45442;-75
2022/12/13 03:48:30;;;;;;;;;33.75;25.75;;;;;-1.02;61.27;100312.88;4987966;28;45456;-75
2022/12/13 03:50:56;;;;;;;;;25.50;23.25;;;;;-1.04;61.43;100304.22;4993180;28;45649;-75
2022/12/13 03:53:23;;;;;;;;;28.75;22.50;;;;;-0.95;61.80;100330.38;5002360;28;45563;-74
2022/12/13 03:55:48;;;;;;;;;27.00;21.00;;;;;-0.95;61.36;100332.97;4986353;28;45254;-75
2022/12/13 03:58:14;;;;;;;;;20.00;18.75;;;;;-0.95;61.57;100332.97;5003237;28;45224;-75
2022/12/13 04:00:39;;;;;;;;;22.75;17.00;;;;;-0.98;62.78;100337.16;4996079;28;45247;-74
2022/12/13 04:03:05;;;;;;;;;20.50;20.50;;;;;-0.98;61.63;100342.31;4986405;28;45430;-75
2022/12/13 04:05:30;;;;;;;;;33.75;23.25;;;;;-0.98;62.43;100358.69;4976010;28;45194;-74
2022/12/13 04:07:57;;;;;;;;;33.50;23.25;;;;;-1.00;61.85;100346.53;4999507;28;45246;-74
2022/12/13 04:10:23;;;;;;;;;23.25;19.75;;;;;-1.12;62.25;100324.59;4969127;28;45619;-75
2022/12/13 04:15:32;;;;;;;;;27.25;22.25;;;;;-1.05;61.50;100343.78;4986369;28;45306;-75
2022/12/13 04:17:58;;;;;;;;;27.25;22.75;;;;;-1.12;62.40;100328.91;4997442;28;45210;-75
2022/12/13 04:20:23;;;;;;;;;31.00;23.50;;;;;-1.15;61.48;100318.44;4992919;28;45554;-75
2022/12/13 04:22:49;;;;;;;;;26.75;20.00;;;;;-1.09;62.38;100331.59;4971731;28;48056;-75
2022/12/13 04:25:14;;;;;;;;;32.00;26.00;;;;;-1.18;61.82;100324.38;4999359;28;45439;-75
2022/12/13 04:27:39;;;;;;;;;26.75;24.00;;;;;-1.12;61.97;100329.78;4993087;28;45471;-75
2022/12/13 04:30:06;;;;;;;;;28.75;24.75;;;;;-1.10;62.14;100324.66;5005821;28;45417;-75
2022/12/13 04:32:31;;;;;;;;;26.75;24.50;;;;;-1.20;61.66;100309.66;4998850;28;46373;-75
2022/12/13 04:34:57;;;;;;;;;28.50;24.25;;;;;-1.25;62.16;100295.72;4986073;28;45469;-74
2022/12/13 04:37:22;;;;;;;;;26.75;23.50;;;;;-1.29;61.80;100298.97;4984779;28;45396;-75
2022/12/13 04:39:48;;;;;;;;;23.50;20.50;;;;;-1.29;62.67;100302.44;4968292;28;45560;-74
2022/12/13 04:42:13;;;;;;;;;30.25;22.00;;;;;-1.28;62.27;100309.38;4986581;28;45436;-74
2022/12/13 04:44:39;;;;;;;;;26.75;23.50;;;;;-1.39;62.05;100290.00;5006154;28;45307;-75
2022/12/13 04:47:04;;;;;;;;;37.00;28.75;;;;;-1.44;61.68;100279.53;5001501;28;45274;-75
2022/12/13 04:49:30;;;;;;;;;31.00;26.25;;;;;-1.27;61.82;100308.53;4984753;28;45479;-75
2022/12/13 04:51:59;;;;;;;;;24.25;18.75;;;;;-1.30;61.98;100302.41;4996996;28;45702;-75
2022/12/13 04:54:24;;;;;;;;;29.00;25.75;;;;;-1.43;62.57;100280.41;4989886;28;45439;-75
2022/12/13 04:56:50;;;;;;;;;28.75;25.25;;;;;-1.39;62.10;100293.50;4982817;28;45524;-75
2022/12/13 04:59:15;;;;;;;;;23.25;22.75;;;;;-1.42;62.67;100287.31;4981443;28;45322;-75
2022/12/13 05:01:41;;;;;;;;;36.25;26.25;;;;;-1.31;62.51;100309.28;4981299;28;46910;-75
2022/12/13 05:04:06;;;;;;;;;32.75;26.25;;;;;-1.29;62.18;100302.44;4982723;28;45456;-75
2022/12/13 05:06:31;;;;;;;;;32.75;28.25;;;;;-1.28;62.18;100306.81;4982590;28;45348;-74
2022/12/13 05:08:57;;;;;;;;;26.00;26.00;;;;;-1.33;62.89;100293.72;4982227;28;45617;-75
2022/12/13 05:11:22;;;;;;;;;37.75;29.00;;;;;-1.34;61.98;100299.72;4982088;28;46396;-75
2022/12/13 05:13:47;;;;;;;;;29.25;28.50;;;;;-1.43;62.88;100272.66;4982311;28;45412;-75
2022/12/13 05:16:14;;;;;;;;;29.75;25.75;;;;;-1.34;62.58;100291.06;4981015;28;45347;-75
2022/12/13 05:18:40;;;;;;;;;36.50;26.75;;;;;-1.37;62.58;100291.81;4997212;28;45486;-75
2022/12/13 05:21:09;;;;;;;;;36.50;26.25;;;;;-1.26;62.65;100302.53;4977795;28;46664;-74
2022/12/13 05:23:35;;;;;;;;;38.25;34.75;;;;;-1.40;62.37;100273.66;4964265;28;45290;-75
2022/12/13 05:26:01;;;;;;;;;33.25;29.00;;;;;-1.24;62.56;100300.91;4988099;28;45453;-74
2022/12/13 05:28:27;;;;;;;;;34.25;29.25;;;;;-1.34;62.40;100289.38;4984034;28;45666;-75
2022/12/13 05:31:04;;;;;;;;;39.75;26.25;;;;;-1.27;62.51;100289.59;5001797;28;45461;-74
2022/12/13 05:33:29;;;;;;;;;32.75;28.75;;;;;-1.35;62.47;100282.44;4999334;28;45816;-75
2022/12/13 05:35:55;;;;;;;;;29.25;23.25;;;;;-1.34;62.77;100284.22;4991815;28;45418;-75
2022/12/13 05:38:20;;;;;;;;;32.25;28.75;;;;;-1.29;63.10;100298.97;4978128;28;45449;-74
2022/12/13 05:40:45;;;;;;;;;29.75;27.00;;;;;-1.29;62.67;100304.16;4992876;28;45324;-74
2022/12/13 05:43:11;;;;;;;;;41.00;33.25;;;;;-1.34;62.61;100299.72;4983730;28;45328;-75
2022/12/13 05:45:37;;;;;;;;;30.75;23.50;;;;;-1.36;62.86;100301.34;5010670;28;45488;-75
2022/12/13 05:48:02;;;;;;;;;33.50;25.00;;;;;-1.31;62.44;100304.09;4970794;28;45284;-75
2022/12/13 05:50:28;;;;;;;;;37.50;33.75;;;;;-1.33;62.13;100303.16;4984740;28;46369;-75
2022/12/13 05:52:53;;;;;;;;;32.75;25.50;;;;;-1.35;62.90;100307.38;4997059;28;45459;-75
2022/12/13 05:55:19;;;;;;;;;29.50;25.25;;;;;-1.29;62.38;100311.88;4994919;28;45437;-75
2022/12/13 05:57:44;;;;;;;;;33.75;26.50;;;;;-1.32;62.83;100312.66;4963894;28;45422;-74
2022/12/13 06:00:10;;;;;;;;;28.75;23.75;;;;;-1.23;62.60;100322.44;4994404;28;46272;-75
2022/12/13 06:02:37;;;;;;;;;31.75;23.75;;;;;-1.26;62.50;100318.03;4962559;28;45351;-75
2022/12/13 06:05:04;;;;;;;;;28.75;24.25;;;;;-1.31;63.09;100314.44;4968081;28;45433;-75
2022/12/13 06:07:30;;;;;;;;;33.00;29.50;;;;;-1.37;62.32;100309.03;4977287;28;45554;-74
2022/12/13 06:09:55;;;;;;;;;36.75;30.25;;;;;-1.29;62.82;100329.97;4993953;28;46150;-75
2022/12/13 06:12:21;;;;;;;;;35.50;28.50;;;;;-1.19;62.79;100356.19;4979794;28;45277;-75
2022/12/13 06:14:46;;;;;;;;;32.75;29.50;;;;;-1.31;62.98;100329.94;4988721;28;45249;-75
2022/12/13 06:17:11;;;;;;;;;35.50;32.25;;;;;-1.32;62.86;100325.56;4992270;28;45217;-75
2022/12/13 06:19:37;;;;;;;;;31.25;23.75;;;;;-1.26;62.02;100336.13;4993835;28;45256;-74
2022/12/13 06:22:02;;;;;;;;;38.50;32.00;;;;;-1.23;62.42;100337.94;4981315;28;45202;-75
2022/12/13 06:24:28;;;;;;;;;35.00;27.75;;;;;-1.22;62.89;100330.25;4981329;28;45753;-75
2022/12/13 06:26:53;;;;;;;;;33.75;29.00;;;;;-1.10;62.60;100350.47;4977298;28;45754;-75
2022/12/13 06:29:21;;;;;;;;;28.75;24.50;;;;;-1.13;62.52;100340.91;4992173;28;46908;-75
2022/12/13 06:31:46;;;;;;;;;35.50;29.50;;;;;-1.18;62.57;100331.22;4979691;28;45883;-75
2022/12/13 06:34:12;;;;;;;;;28.00;26.50;;;;;-1.20;62.38;100328.63;4981349;28;45374;-75
2022/12/13 06:36:38;;;;;;;;;35.25;30.00;;;;;-1.18;62.35;100328.66;4981030;28;45277;-75
2022/12/13 06:39:05;;;;;;;;;27.00;25.25;;;;;-1.19;63.08;100332.94;4980610;28;46389;-75
2022/12/13 06:41:30;;;;;;;;;38.00;35.00;;;;;-1.17;62.60;100328.72;4980751;28;45484;-75
2022/12/13 06:43:56;;;;;;;;;39.75;34.00;;;;;-1.21;62.50;100316.50;4989055;28;45565;-75
2022/12/13 06:46:21;;;;;;;;;34.25;30.25;;;;;-1.19;62.38;100324.31;4989963;28;45301;-75
2022/12/13 06:48:47;;;;;;;;;39.75;32.75;;;;;-1.20;62.82;100312.25;4980930;28;45454;-75
2022/12/13 06:51:13;;;;;;;;;38.00;32.50;;;;;-1.16;62.54;100322.72;4989924;28;45526;-75
2022/12/13 06:53:39;;;;;;;;;38.00;29.50;;;;;-1.08;62.63;100328.16;4980825;28;45389;-75
2022/12/13 06:56:08;;;;;;;;;35.00;29.75;;;;;-1.21;62.62;100310.47;4980708;28;45337;-74
2022/12/13 06:58:34;;;;;;;;;41.00;35.00;;;;;-1.09;62.55;100321.25;4982979;28;46192;-76
2022/12/13 07:01:11;;;;;;;;;36.50;31.00;;;;;-1.15;62.92;100310.69;4985556;28;45233;-76
2022/12/13 07:03:37;;;;;;;;;33.50;32.00;;;;;-1.18;62.71;100302.81;4974503;28;45187;-76
2022/12/13 07:06:05;;;;;;;;;32.50;29.75;;;;;-1.16;63.11;100309.81;4980500;28;45174;-76
2022/12/13 07:08:30;;;;;;;;;38.00;34.00;;;;;-1.13;62.75;100311.63;4980209;28;46232;-76
2022/12/13 07:10:56;;;;;;;;;36.00;30.50;;;;;-1.12;62.29;100306.53;4980201;28;45385;-76
2022/12/13 07:13:22;;;;;;;;;41.25;30.25;;;;;-1.05;62.75;100320.53;4980451;28;45479;-76
2022/12/13 07:15:48;;;;;;;;;43.00;36.00;;;;;-1.14;62.88;100297.84;4962844;28;45679;-76
2022/12/13 07:18:13;;;;;;;;;35.00;29.75;;;;;-1.11;62.75;100309.97;4993087;28;46172;-76
2022/12/13 07:20:39;;;;;;;;;37.50;32.50;;;;;-0.99;62.43;100325.03;4984243;28;45293;-76
2022/12/13 07:23:05;;;;;;;;;46.25;36.75;;;;;-1.08;62.73;100314.38;4980442;28;45294;-76
2022/12/13 07:25:30;;;;;;;;;38.75;33.25;;;;;-1.07;62.84;100313.53;4980352;28;45425;-76
2022/12/13 07:28:01;;;;;;;;;40.50;30.00;;;;;-1.03;63.00;100325.75;4980309;28;45311;-77
2022/12/13 07:30:26;;;;;;;;;33.25;26.25;;;;;-0.97;62.26;100334.59;4979197;28;45373;-76
2022/12/13 07:32:51;;;;;;;;;37.75;35.00;;;;;-1.04;62.73;100323.97;4980492;28;45302;-76
2022/12/13 07:35:17;;;;;;;;;28.75;22.50;;;;;-0.96;61.83;100343.25;4983608;28;45389;-76
2022/12/13 07:37:42;;;;;;;;;32.75;32.75;;;;;-0.93;62.54;100348.53;4981850;28;47849;-76
2022/12/13 07:40:09;;;;;;;;;43.00;35.50;;;;;-1.06;62.12;100326.53;4983090;28;45417;-76
2022/12/13 07:42:34;;;;;;;;;29.50;26.00;;;;;-0.99;62.21;100340.53;4978927;28;45226;-75
2022/12/13 07:45:00;;;;;;;;;33.25;27.75;;;;;-0.96;62.22;100358.75;5002510;28;45219;-76
2022/12/13 07:47:30;;;;;;;;;35.25;33.25;;;;;-1.07;62.06;100339.38;4991524;28;46261;-76
2022/12/13 07:49:55;;;;;;;;;45.50;37.25;;;;;-0.99;62.74;100356.03;4982151;28;45468;-76
2022/12/13 07:52:21;;;;;;;;;37.75;34.75;;;;;-1.10;62.46;100342.72;5001698;28;45659;-76
2022/12/13 07:54:46;;;;;;;;;40.50;37.75;;;;;-1.03;62.30;100362.81;4979952;28;45334;-75
2022/12/13 07:57:12;;;;;;;;;37.50;33.50;;;;;-1.05;62.83;100363.56;4979778;28;45455;-74
2022/12/13 07:59:37;;;;;;;;;40.25;36.00;;;;;-1.02;61.95;100377.47;4982187;28;45458;-74
2022/12/13 08:02:05;;;;;;;;;49.00;41.75;;;;;-1.00;62.27;100362.91;4999683;28;45436;-75
2022/12/13 08:04:30;;;;;;;;;47.75;39.75;;;;;-0.89;62.13;100381.38;4996500;28;45425;-74
2022/12/13 08:06:56;;;;;;;;;44.25;32.75;;;;;-0.95;62.60;100363.09;4979773;28;45332;-75
2022/12/13 08:09:22;;;;;;;;;36.25;33.25;;;;;-0.83;62.46;100380.72;4978022;28;45740;-75
2022/12/13 08:11:47;;;;;;;;;37.25;34.75;;;;;-0.82;62.12;100377.34;4978024;28;45338;-75
2022/12/13 08:14:12;;;;;;;;;35.75;35.25;;;;;-0.96;62.57;100348.41;4980809;28;45870;-75
2022/12/13 08:16:38;;;;;;;;;36.25;33.25;;;;;-0.80;62.75;100380.81;4988319;28;48239;-75
2022/12/13 08:19:04;;;;;;;;;45.50;39.25;;;;;-0.83;62.55;100379.00;4996412;28;45364;-75
2022/12/13 08:21:36;;;;;;;;;48.50;41.75;;;;;-0.86;62.30;100375.44;4979663;28;45486;-75
2022/12/13 08:24:02;;;;;;;;;54.50;42.50;;;;;-0.87;62.04;100368.53;4977911;28;46043;-75
2022/12/13 08:26:27;;;;;;;;;54.50;42.50;;;;;-0.76;62.08;100399.09;4981866;28;45580;-76
2022/12/13 08:28:53;;;;;;;;;44.00;42.25;;;;;-0.91;62.45;100359.78;4982163;28;45240;-77
2022/12/13 08:31:18;;;;;;;;;50.50;43.25;;;;;-0.84;62.15;100373.81;5002518;28;45404;-76
2022/12/13 08:33:46;;;;;;;;;64.00;49.00;;;;;-0.83;62.20;100373.84;5000860;28;45568;-77
2022/12/13 08:36:17;;;;;;;;;49.50;43.75;;;;;-0.73;62.05;100388.84;4972732;28;46771;-77
2022/12/13 08:38:46;;;;;;;;;47.25;42.75;;;;;-0.80;62.29;100370.50;4986522;28;45283;-76
2022/12/13 08:41:12;;;;;;;;;50.00;42.50;;;;;-0.69;61.96;100375.22;5002041;28;45366;-76
2022/12/13 08:43:38;;;;;;;;;46.75;39.25;;;;;-0.83;62.25;100357.47;4969260;28;45342;-76
2022/12/13 08:46:04;;;;;;;;;47.75;39.50;;;;;-0.66;62.41;100392.56;5009929;28;46342;-77
2022/12/13 08:48:30;;;;;;;;;39.25;34.75;;;;;-0.69;62.21;100374.38;4971491;28;45438;-76
2022/12/13 08:51:07;;;;;;;;;52.00;45.25;;;;;-0.63;61.81;100377.16;5001719;28;45257;-76
2022/12/13 08:53:33;;;;;;;;;57.00;46.25;;;;;-0.62;61.90;100378.91;4992208;28;45431;-76
2022/12/13 08:56:00;;;;;;;;;48.25;42.75;;;;;-0.62;62.25;100375.44;4994208;28;46479;-76
2022/12/13 08:58:25;;;;;;;;;50.00;45.00;;;;;-0.53;61.71;100388.72;4982645;28;45267;-76
2022/12/13 09:00:51;;;;;;;;;49.25;42.00;;;;;-0.53;62.30;100374.06;4980970;28;45485;-77
2022/12/13 09:03:16;;;;;;;;;55.25;47.25;;;;;-0.38;61.78;100396.09;4981913;28;45389;-76
2022/12/13 09:05:42;;;;;;;;;49.00;42.25;;;;;-0.41;62.21;100371.03;4982311;28;46281;-77
2022/12/13 09:08:07;;;;;;;;;61.50;48.75;;;;;-0.41;61.58;100358.09;4980717;28;45797;-77
2022/12/13 09:10:33;;;;;;;;;51.50;42.75;;;;;-0.48;61.55;100348.38;4980844;28;45460;-76
2022/12/13 09:13:00;;;;;;;;;50.50;44.00;;;;;-0.42;61.46;100342.53;4980688;28;45364;-77
2022/12/13 09:15:28;;;;;;;;;42.00;37.75;;;;;-0.30;61.56;100361.91;4982014;28;45486;-76
2022/12/13 09:17:54;;;;;;;;;40.00;35.00;;;;;-0.28;61.33;100372.31;4992100;28;45320;-75
2022/12/13 09:20:19;;;;;;;;;44.50;38.50;;;;;-0.22;61.39;100377.69;4988705;28;45452;-74
2022/12/13 09:22:45;;;;;;;;;48.75;40.25;;;;;-0.19;60.99;100372.63;4994545;28;45443;-74
2022/12/13 09:25:11;;;;;;;;;44.50;36.75;;;;;-0.20;60.65;100364.81;4981284;28;45474;-75
2022/12/13 09:27:36;;;;;;;;;44.00;39.50;;;;;-0.23;60.88;100357.84;4995207;28;45468;-75
2022/12/13 09:30:03;;;;;;;;;46.25;42.25;;;;;-0.12;61.34;100360.78;4987904;28;45552;-74
2022/12/13 09:32:30;;;;;;;;;48.75;41.50;;;;;-0.21;60.90;100358.78;4963748;28;45476;-74
2022/12/13 09:34:55;;;;;;;;;42.00;37.50;;;;;-0.12;61.13;100364.25;4963699;28;48314;-74
2022/12/13 09:37:21;;;;;;;;;48.00;39.75;;;;;-0.15;61.01;100350.34;4979581;28;45250;-74
2022/12/13 09:39:46;;;;;;;;;42.50;37.00;;;;;-0.03;60.64;100377.50;4975209;28;45375;-74
2022/12/13 09:42:19;;;;;;;;;44.75;40.50;;;;;-0.04;60.67;100374.84;5001061;28;45441;-74
2022/12/13 09:44:53;;;;;;;;;44.50;41.50;;;;;-0.03;60.29;100363.66;5007359;28;45506;-77
2022/12/13 09:47:30;;;;;;;;;41.75;34.50;;;;;0.05;60.55;100367.38;4981612;28;45437;-76
2022/12/13 09:49:59;;;;;;;;;38.50;33.50;;;;;0.06;59.89;100363.09;4977613;28;45167;-75
2022/12/13 09:52:25;;;;;;;;;42.75;35.50;;;;;0.10;60.57;100371.00;4997007;28;45686;-74
2022/12/13 09:54:55;;;;;;;;;51.00;41.75;;;;;0.20;60.14;100370.47;4997867;28;45967;-74
2022/12/13 09:57:28;;;;;;;;;43.00;40.50;;;;;0.08;59.85;100331.28;4963434;28;45523;-74
2022/12/13 09:59:54;;;;;;;;;46.75;40.00;;;;;0.24;60.14;100339.50;4980879;28;45501;-74
2022/12/13 10:02:24;;;;;;;;;49.00;42.25;;;;;0.43;60.33;100360.84;4981469;28;45454;-74
2022/12/13 10:04:49;;;;;;;;;46.50;41.00;;;;;0.54;60.01;100362.88;4980809;28;45500;-74
2022/12/13 10:07:20;;;;;;;;;46.25;41.25;;;;;0.55;59.72;100349.97;4981115;28;45239;-74
2022/12/13 10:09:46;;;;;;;;;37.50;33.25;;;;;0.71;59.72;100356.47;4981096;28;45328;-74
2022/12/13 10:12:14;;;;;;;;;51.25;43.00;;;;;0.71;59.62;100335.75;4963234;28;45921;-74
2022/12/13 10:14:47;;;;;;;;;40.50;35.25;;;;;1.02;59.61;100354.78;4980831;28;46639;-74
2022/12/13 10:17:20;;;;;;;;;44.00;37.75;;;;;1.13;59.53;100347.31;4985445;28;45256;-73
2022/12/13 10:19:50;;;;;;;;;45.50;40.25;;;;;1.30;59.77;100343.47;4992101;28;45289;-74
2022/12/13 10:22:18;;;;;;;;;38.00;32.25;;;;;1.57;59.09;100356.28;4975003;28;45511;-73
2022/12/13 10:25:04;;;;;;;;;39.00;35.50;;;;;1.72;58.70;100355.81;4980418;28;45921;-73
2022/12/13 10:27:46;;;;;;;;;42.25;37.00;;;;;2.03;58.48;100346.19;4985129;28;45706;-73
2022/12/13 10:30:15;;;;;;;;;42.00;38.00;;;;;2.94;59.17;100328.28;5000333;28;45302;-73
2022/12/13 10:32:56;;;;;;;;;36.75;36.50;;;;;3.87;57.82;100340.44;4973770;28;45908;-73
2022/12/13 10:35:26;;;;;;;;;52.50;42.75;;;;;4.29;56.44;100336.78;4980463;28;45480;-74
2022/12/13 10:37:52;;;;;;;;;48.25;39.25;;;;;4.70;55.52;100336.47;4978987;28;45512;-76
2022/12/13 10:40:32;;;;;;;;;34.75;34.75;;;;;5.19;54.96;100333.63;4979310;28;45295;-74
2022/12/13 10:43:20;;;;;;;;;40.50;35.00;;;;;5.90;54.55;100319.53;4993476;28;45464;-74
2022/12/13 10:45:55;;;;;;;;;45.25;35.00;;;;;7.13;53.83;100339.47;5006388;28;45553;-74
2022/12/13 10:48:39;;;;;;;;;41.50;38.00;;;;;8.27;52.95;100327.41;4981034;28;45348;-76
2022/12/13 10:51:11;;;;;;;;;41.00;37.00;;;;;9.54;50.89;100319.97;4992834;28;45449;-74
2022/12/13 10:53:47;;;;;;;;;44.50;35.00;;;;;10.57;49.34;100315.59;4994366;28;45551;-74
2022/12/13 10:56:12;;;;;;;;;40.25;36.00;;;;;11.57;48.08;100310.81;4983402;28;47072;-75
2022/12/13 10:58:43;;;;;;;;;43.50;37.00;;;;;12.42;46.77;100302.44;4981019;28;45411;-75
2022/12/13 11:01:19;;;;;;;;;43.00;35.25;;;;;13.31;45.63;100303.28;5004143;28;45388;-75
2022/12/13 11:04:02;;;;;;;;;28.75;21.25;;;;;13.49;43.14;100279.09;4997563;28;45410;-75
2022/12/13 11:06:44;;;;;;;;;39.50;35.00;;;;;12.74;41.89;100270.13;4994117;28;46686;-75
2022/12/13 11:09:35;;;;;;;;;36.00;33.25;;;;;11.46;40.86;100274.94;5003433;28;45188;-75
2022/12/13 11:12:10;;;;;;;;;30.00;27.50;;;;;10.63;41.52;100271.69;4992624;28;45510;-74
2022/12/13 11:14:47;;;;;;;;;36.25;34.00;;;;;11.52;42.67;100259.94;4986009;28;45385;-75
2022/12/13 11:17:19;;;;;;;;;42.75;35.00;;;;;12.33;41.58;100256.81;5005747;28;45992;-75
2022/12/13 11:19:50;;;;;;;;;37.25;33.00;;;;;11.86;40.02;100261.16;5003110;28;45356;-75
2022/12/13 11:22:23;;;;;;;;;40.25;35.00;;;;;10.77;39.61;100259.22;4980891;28;45358;-75